Time;durP1;ratioP1;P1;durP2;ratioP2;P2;SDS_P1;SDS_P2;PMS_P1;PMS_P2;Temp;Humidity;BMP_temperature;BMP_pressure;BME280_temperature;BME280_humidity;BME280_pressure;Samples;Min_cycle;Max_cycle;Signal;HPM_P1;HPM_P2
2021/04/17 01:32:23;;;;;;;1.88;1.77;;;;;;;16.93;40.08;94464.97;5094719;27;96527;-58
2021/04/17 01:34:50;;;;;;;1.80;1.70;;;;;;;17.12;40.05;94466.69;5075803;27;96901;-62
2021/04/17 01:37:16;;;;;;;1.88;1.77;;;;;;;17.33;40.09;94471.50;5092713;27;99626;-63
2021/04/17 01:39:41;;;;;;;2.22;1.90;;;;;;;17.53;39.33;94449.34;5093405;27;99444;-66
2021/04/17 01:42:08;;;;;;;6.25;2.40;;;;;;;17.64;38.55;94444.72;5091942;27;96739;-63
2021/04/17 01:44:41;;;;;;;2.72;2.53;;;;;;;17.75;37.86;94445.53;5093394;27;97105;-63
2021/04/17 01:47:08;;;;;;;10.45;8.32;;;;;;;17.87;37.69;94451.81;5091890;27;99707;-64
2021/04/17 01:49:38;;;;;;;11.95;9.93;;;;;;;17.95;37.50;94442.47;5090559;27;98978;-63
2021/04/17 22:35:22;;;;;;;23.40;17.15;;;;;;;18.81;51.08;94129.06;5034096;28;96414;-63
2021/04/17 22:37:49;;;;;;;53.45;44.40;;;;;;;19.09;50.48;94128.13;5031998;27;96889;-58
2021/04/17 22:40:15;;;;;;;40.53;34.95;;;;;;;19.42;50.54;94124.38;5031607;28;99579;-63
2021/04/17 22:42:40;;;;;;;43.30;37.25;;;;;;;19.64;49.68;94124.97;5031339;28;99535;-60
2021/04/17 22:45:06;;;;;;;31.58;27.98;;;;;;;19.82;49.77;94130.25;5031848;27;96792;-60
2021/04/17 22:47:32;;;;;;;29.33;25.25;;;;;;;19.96;49.13;94126.63;5031968;27;96969;-63
2021/04/17 22:49:58;;;;;;;27.20;23.55;;;;;;;20.14;49.18;94124.47;5031662;28;99503;-62
2021/04/17 22:52:23;;;;;;;26.45;23.42;;;;;;;20.28;48.96;94128.25;5029809;28;99507;-60
2021/04/17 22:54:49;;;;;;;26.95;21.67;;;;;;;20.34;48.86;94118.34;5031896;27;96826;-62
2021/04/17 22:57:14;;;;;;;24.23;21.55;;;;;;;20.38;48.58;94124.56;5031880;27;96815;-61
2021/04/17 22:59:40;;;;;;;25.52;20.95;;;;;;;20.46;48.67;94127.22;5031272;28;99234;-62
2021/04/17 23:02:05;;;;;;;26.00;20.38;;;;;;;20.50;48.28;94122.47;5031118;27;99280;-59
2021/04/17 23:04:32;;;;;;;21.30;17.23;;;;;;;20.63;48.51;94119.97;5031657;27;96697;-62
2021/04/17 23:06:57;;;;;;;21.38;17.00;;;;;;;20.74;48.27;94104.13;5030602;27;97155;-62
2021/04/17 23:09:23;;;;;;;17.20;13.93;;;;;;;20.78;46.61;94098.63;5031046;27;99539;-59
2021/04/17 23:11:48;;;;;;;15.75;11.57;;;;;;;20.87;45.28;94101.66;5030649;27;99455;-59
2021/04/17 23:14:14;;;;;;;12.13;9.23;;;;;;;20.98;44.63;94104.22;5029733;28;96867;-61
2021/04/17 23:16:39;;;;;;;10.90;8.88;;;;;;;21.03;44.36;94085.31;5019420;27;96904;-61
2021/04/17 23:19:05;;;;;;;9.45;8.02;;;;;;;21.12;44.02;94084.00;5019748;28;99609;-61
2021/04/17 23:21:30;;;;;;;8.32;6.95;;;;;;;21.13;43.89;94080.06;5010917;28;97939;-59
2021/04/17 23:23:56;;;;;;;7.63;6.85;;;;;;;21.18;43.75;94087.84;5022504;28;96749;-58
2021/04/17 23:26:21;;;;;;;8.18;6.45;;;;;;;21.19;43.56;94083.91;5031349;27;96980;-58
2021/04/17 23:28:47;;;;;;;7.50;6.25;;;;;;;21.21;43.51;94065.03;5031114;27;98027;-61
2021/04/17 23:31:12;;;;;;;5.90;5.30;;;;;;;21.28;43.35;94075.91;5031217;28;97250;-60
2021/04/17 23:33:38;;;;;;;5.38;4.88;;;;;;;21.29;43.29;94082.16;5030941;28;96801;-60
2021/04/17 23:36:04;;;;;;;8.07;6.60;;;;;;;21.37;42.97;94075.34;5031222;28;96775;-61
2021/04/17 23:38:29;;;;;;;8.02;6.30;;;;;;;21.37;42.44;94066.34;5030971;28;99883;-59
2021/04/17 23:40:55;;;;;;;7.78;6.57;;;;;;;21.35;42.23;94069.50;5031183;28;97898;-58
2021/04/17 23:43:20;;;;;;;10.45;7.07;;;;;;;21.36;42.18;94081.28;5031609;28;96867;-60
2021/04/17 23:45:46;;;;;;;8.15;5.95;;;;;;;21.35;42.16;94069.50;5023279;27;96973;-60
2021/04/17 23:48:11;;;;;;;8.70;5.53;;;;;;;21.36;42.43;94064.81;5017226;28;99088;-59
2021/04/17 23:50:37;;;;;;;7.60;5.40;;;;;;;21.41;42.50;94050.59;5017066;28;98926;-60
2021/04/17 23:53:02;;;;;;;6.18;5.13;;;;;;;21.44;42.35;94041.50;5017571;28;96892;-59
2021/04/17 23:55:28;;;;;;;5.45;4.85;;;;;;;21.44;42.51;94034.03;5018136;28;96872;-62
2021/04/17 23:57:53;;;;;;;5.00;4.50;;;;;;;21.58;42.28;94049.47;5017325;28;99414;-60
